sensor_id;sensor_type;location;lat;lon;timestamp;P1;durP1;ratioP1;P2;durP2;ratioP2
62435;SDS011;48480;50.252;18.848;2023-02-26T00:01:19;10.00;;;6.30;;
62435;SDS011;48480;50.252;18.848;2023-02-26T00:03:50;11.00;;;6.10;;
62435;SDS011;48480;50.252;18.848;2023-02-26T00:06:17;10.90;;;6.20;;
62435;SDS011;48480;50.252;18.848;2023-02-26T00:08:43;14.60;;;9.50;;
62435;SDS011;48480;50.252;18.848;2023-02-26T00:11:09;15.10;;;7.50;;
62435;SDS011;48480;50.252;18.848;2023-02-26T00:13:35;13.90;;;7.00;;
62435;SDS011;48480;50.252;18.848;2023-02-26T00:16:03;13.50;;;6.70;;
62435;SDS011;48480;50.252;18.848;2023-02-26T00:18:37;10.60;;;6.00;;
62435;SDS011;48480;50.252;18.848;2023-02-26T00:21:03;12.80;;;6.00;;
62435;SDS011;48480;50.252;18.848;2023-02-26T00:23:29;15.50;;;7.40;;
62435;SDS011;48480;50.252;18.848;2023-02-26T00:25:54;11.80;;;6.10;;
62435;SDS011;48480;50.252;18.848;2023-02-26T00:28:22;12.20;;;5.80;;
62435;SDS011;48480;50.252;18.848;2023-02-26T00:30:48;12.00;;;6.60;;
62435;SDS011;48480;50.252;18.848;2023-02-26T00:33:13;11.60;;;6.60;;
62435;SDS011;48480;50.252;18.848;2023-02-26T00:35:39;13.10;;;6.20;;
62435;SDS011;48480;50.252;18.848;2023-02-26T00:38:05;10.90;;;5.70;;
62435;SDS011;48480;50.252;18.848;2023-02-26T00:40:35;10.00;;;6.30;;
62435;SDS011;48480;50.252;18.848;2023-02-26T00:43:05;15.20;;;8.80;;
62435;SDS011;48480;50.252;18.848;2023-02-26T00:45:32;15.70;;;10.10;;
62435;SDS011;48480;50.252;18.848;2023-02-26T00:48:15;15.20;;;7.80;;
62435;SDS011;48480;50.252;18.848;2023-02-26T00:50:58;19.90;;;10.80;;
62435;SDS011;48480;50.252;18.848;2023-02-26T00:53:54;35.60;;;16.20;;
62435;SDS011;48480;50.252;18.848;2023-02-26T00:56:27;24.70;;;10.50;;
62435;SDS011;48480;50.252;18.848;2023-02-26T00:58:53;25.70;;;9.90;;
62435;SDS011;48480;50.252;18.848;2023-02-26T01:01:18;15.60;;;7.30;;
62435;SDS011;48480;50.252;18.848;2023-02-26T01:03:44;21.40;;;8.00;;
62435;SDS011;48480;50.252;18.848;2023-02-26T01:06:12;21.60;;;8.70;;
62435;SDS011;48480;50.252;18.848;2023-02-26T01:08:47;22.10;;;10.60;;
62435;SDS011;48480;50.252;18.848;2023-02-26T01:11:19;19.20;;;8.90;;
62435;SDS011;48480;50.252;18.848;2023-02-26T01:13:44;13.10;;;6.90;;
62435;SDS011;48480;50.252;18.848;2023-02-26T01:16:11;13.30;;;6.80;;
62435;SDS011;48480;50.252;18.848;2023-02-26T01:19:26;15.70;;;7.60;;
62435;SDS011;48480;50.252;18.848;2023-02-26T01:21:40;19.70;;;7.60;;
62435;SDS011;48480;50.252;18.848;2023-02-26T01:24:12;12.10;;;7.10;;
62435;SDS011;48480;50.252;18.848;2023-02-26T01:26:41;16.00;;;7.50;;
62435;SDS011;48480;50.252;18.848;2023-02-26T01:29:06;13.50;;;6.70;;
62435;SDS011;48480;50.252;18.848;2023-02-26T01:34:22;12.00;;;7.40;;
62435;SDS011;48480;50.252;18.848;2023-02-26T01:37:07;10.80;;;5.90;;
62435;SDS011;48480;50.252;18.848;2023-02-26T01:39:59;13.60;;;7.20;;
62435;SDS011;48480;50.252;18.848;2023-02-26T01:42:39;8.30;;;4.80;;
62435;SDS011;48480;50.252;18.848;2023-02-26T01:50:15;8.90;;;4.80;;
62435;SDS011;48480;50.252;18.848;2023-02-26T01:55:40;8.90;;;5.00;;
62435;SDS011;48480;50.252;18.848;2023-02-26T01:58:07;7.10;;;4.60;;
62435;SDS011;48480;50.252;18.848;2023-02-26T02:00:32;7.90;;;5.40;;
62435;SDS011;48480;50.252;18.848;2023-02-26T02:02:58;9.40;;;5.80;;
62435;SDS011;48480;50.252;18.848;2023-02-26T02:05:25;6.50;;;5.10;;
62435;SDS011;48480;50.252;18.848;2023-02-26T02:07:55;8.80;;;5.70;;
62435;SDS011;48480;50.252;18.848;2023-02-26T02:10:22;7.90;;;5.50;;
62435;SDS011;48480;50.252;18.848;2023-02-26T02:16:02;6.50;;;4.50;;
62435;SDS011;48480;50.252;18.848;2023-02-26T02:29:22;7.00;;;3.60;;
62435;SDS011;48480;50.252;18.848;2023-02-26T02:31:57;5.50;;;3.40;;
62435;SDS011;48480;50.252;18.848;2023-02-26T02:34:31;6.90;;;4.40;;
62435;SDS011;48480;50.252;18.848;2023-02-26T02:37:14;7.10;;;3.60;;
62435;SDS011;48480;50.252;18.848;2023-02-26T02:40:26;6.60;;;3.80;;
62435;SDS011;48480;50.252;18.848;2023-02-26T02:48:32;5.00;;;3.60;;
62435;SDS011;48480;50.252;18.848;2023-02-26T02:51:04;5.50;;;3.40;;
62435;SDS011;48480;50.252;18.848;2023-02-26T02:56:09;4.80;;;3.40;;
62435;SDS011;48480;50.252;18.848;2023-02-26T02:58:40;7.30;;;3.50;;
62435;SDS011;48480;50.252;18.848;2023-02-26T03:01:11;5.80;;;3.40;;
62435;SDS011;48480;50.252;18.848;2023-02-26T03:03:51;4.50;;;3.30;;
62435;SDS011;48480;50.252;18.848;2023-02-26T03:06:24;5.40;;;3.80;;
62435;SDS011;48480;50.252;18.848;2023-02-26T03:08:49;6.80;;;4.20;;
62435;SDS011;48480;50.252;18.848;2023-02-26T03:11:16;8.10;;;4.10;;
62435;SDS011;48480;50.252;18.848;2023-02-26T03:13:42;6.80;;;3.80;;
62435;SDS011;48480;50.252;18.848;2023-02-26T03:19:07;5.80;;;3.80;;
62435;SDS011;48480;50.252;18.848;2023-02-26T03:24:27;6.70;;;3.70;;
62435;SDS011;48480;50.252;18.848;2023-02-26T03:26:59;6.50;;;3.90;;
62435;SDS011;48480;50.252;18.848;2023-02-26T03:32:30;4.70;;;3.50;;
62435;SDS011;48480;50.252;18.848;2023-02-26T03:38:00;6.20;;;3.30;;
62435;SDS011;48480;50.252;18.848;2023-02-26T03:40:32;6.60;;;3.80;;
62435;SDS011;48480;50.252;18.848;2023-02-26T03:43:13;4.40;;;3.10;;
62435;SDS011;48480;50.252;18.848;2023-02-26T03:45:44;6.60;;;3.40;;
62435;SDS011;48480;50.252;18.848;2023-02-26T03:48:23;4.50;;;3.30;;
62435;SDS011;48480;50.252;18.848;2023-02-26T03:50:53;4.70;;;3.30;;
62435;SDS011;48480;50.252;18.848;2023-02-26T03:53:25;6.30;;;3.30;;
62435;SDS011;48480;50.252;18.848;2023-02-26T03:56:06;5.90;;;3.30;;
62435;SDS011;48480;50.252;18.848;2023-02-26T03:58:37;7.50;;;3.90;;
62435;SDS011;48480;50.252;18.848;2023-02-26T04:01:05;5.20;;;3.60;;
62435;SDS011;48480;50.252;18.848;2023-02-26T04:03:43;6.80;;;3.70;;
62435;SDS011;48480;50.252;18.848;2023-02-26T04:06:13;3.80;;;2.80;;
62435;SDS011;48480;50.252;18.848;2023-02-26T04:08:39;5.00;;;2.90;;
62435;SDS011;48480;50.252;18.848;2023-02-26T04:13:33;5.60;;;2.70;;
62435;SDS011;48480;50.252;18.848;2023-02-26T04:15:58;4.50;;;2.60;;
62435;SDS011;48480;50.252;18.848;2023-02-26T04:18:24;4.60;;;3.20;;
62435;SDS011;48480;50.252;18.848;2023-02-26T04:20:49;6.10;;;3.90;;
62435;SDS011;48480;50.252;18.848;2023-02-26T04:23:15;5.80;;;4.10;;
62435;SDS011;48480;50.252;18.848;2023-02-26T04:25:40;6.30;;;3.50;;
62435;SDS011;48480;50.252;18.848;2023-02-26T04:28:06;4.60;;;3.30;;
62435;SDS011;48480;50.252;18.848;2023-02-26T04:30:31;6.10;;;3.40;;
62435;SDS011;48480;50.252;18.848;2023-02-26T04:32:57;4.90;;;3.00;;
62435;SDS011;48480;50.252;18.848;2023-02-26T04:35:22;4.90;;;3.00;;
62435;SDS011;48480;50.252;18.848;2023-02-26T04:37:47;5.20;;;3.10;;
62435;SDS011;48480;50.252;18.848;2023-02-26T04:40:13;7.30;;;4.20;;
62435;SDS011;48480;50.252;18.848;2023-02-26T04:42:39;5.20;;;3.20;;
62435;SDS011;48480;50.252;18.848;2023-02-26T04:45:05;7.80;;;4.00;;
62435;SDS011;48480;50.252;18.848;2023-02-26T04:47:30;8.40;;;5.30;;
62435;SDS011;48480;50.252;18.848;2023-02-26T04:49:56;8.60;;;5.60;;
62435;SDS011;48480;50.252;18.848;2023-02-26T04:52:21;7.20;;;4.90;;
62435;SDS011;48480;50.252;18.848;2023-02-26T04:54:46;7.50;;;4.60;;
62435;SDS011;48480;50.252;18.848;2023-02-26T04:57:12;7.90;;;4.80;;
62435;SDS011;48480;50.252;18.848;2023-02-26T04:59:37;9.20;;;5.30;;
62435;SDS011;48480;50.252;18.848;2023-02-26T05:02:03;9.10;;;4.80;;
62435;SDS011;48480;50.252;18.848;2023-02-26T05:04:29;8.80;;;5.20;;
62435;SDS011;48480;50.252;18.848;2023-02-26T05:06:55;12.20;;;6.70;;
62435;SDS011;48480;50.252;18.848;2023-02-26T05:09:21;10.90;;;5.60;;
62435;SDS011;48480;50.252;18.848;2023-02-26T05:11:46;11.70;;;6.20;;
62435;SDS011;48480;50.252;18.848;2023-02-26T05:14:13;22.10;;;11.00;;
62435;SDS011;48480;50.252;18.848;2023-02-26T05:16:38;20.50;;;9.00;;
62435;SDS011;48480;50.252;18.848;2023-02-26T05:19:04;12.00;;;6.90;;
62435;SDS011;48480;50.252;18.848;2023-02-26T05:21:29;11.50;;;7.50;;
62435;SDS011;48480;50.252;18.848;2023-02-26T05:23:55;8.10;;;6.30;;
62435;SDS011;48480;50.252;18.848;2023-02-26T05:26:21;9.40;;;6.10;;
62435;SDS011;48480;50.252;18.848;2023-02-26T05:28:46;12.70;;;7.10;;
62435;SDS011;48480;50.252;18.848;2023-02-26T05:31:13;11.10;;;5.60;;
62435;SDS011;48480;50.252;18.848;2023-02-26T05:33:39;12.20;;;6.30;;
62435;SDS011;48480;50.252;18.848;2023-02-26T05:36:05;10.90;;;5.90;;
62435;SDS011;48480;50.252;18.848;2023-02-26T05:38:31;10.10;;;6.10;;
62435;SDS011;48480;50.252;18.848;2023-02-26T05:40:58;9.70;;;6.20;;
62435;SDS011;48480;50.252;18.848;2023-02-26T05:43:24;12.40;;;6.90;;
62435;SDS011;48480;50.252;18.848;2023-02-26T05:45:51;11.20;;;7.30;;
62435;SDS011;48480;50.252;18.848;2023-02-26T05:48:17;11.90;;;8.20;;
62435;SDS011;48480;50.252;18.848;2023-02-26T05:50:43;13.10;;;7.80;;
62435;SDS011;48480;50.252;18.848;2023-02-26T05:53:09;15.40;;;8.50;;
62435;SDS011;48480;50.252;18.848;2023-02-26T05:55:34;22.50;;;9.30;;
62435;SDS011;48480;50.252;18.848;2023-02-26T05:58:00;16.10;;;7.60;;
62435;SDS011;48480;50.252;18.848;2023-02-26T06:00:25;13.50;;;7.80;;
62435;SDS011;48480;50.252;18.848;2023-02-26T06:02:51;9.80;;;5.50;;
62435;SDS011;48480;50.252;18.848;2023-02-26T06:05:18;8.40;;;5.20;;
62435;SDS011;48480;50.252;18.848;2023-02-26T06:07:43;10.70;;;6.10;;
62435;SDS011;48480;50.252;18.848;2023-02-26T06:10:09;10.50;;;5.90;;
62435;SDS011;48480;50.252;18.848;2023-02-26T06:12:36;8.90;;;5.50;;
62435;SDS011;48480;50.252;18.848;2023-02-26T06:15:03;7.70;;;5.00;;
62435;SDS011;48480;50.252;18.848;2023-02-26T06:17:29;9.70;;;5.40;;
62435;SDS011;48480;50.252;18.848;2023-02-26T06:19:55;10.30;;;5.30;;
62435;SDS011;48480;50.252;18.848;2023-02-26T06:22:21;9.60;;;5.40;;
62435;SDS011;48480;50.252;18.848;2023-02-26T06:24:46;8.10;;;4.80;;
62435;SDS011;48480;50.252;18.848;2023-02-26T06:27:12;7.50;;;4.90;;
62435;SDS011;48480;50.252;18.848;2023-02-26T06:29:37;7.30;;;4.90;;
62435;SDS011;48480;50.252;18.848;2023-02-26T06:32:03;8.50;;;5.40;;
62435;SDS011;48480;50.252;18.848;2023-02-26T06:34:29;8.80;;;4.90;;
62435;SDS011;48480;50.252;18.848;2023-02-26T06:36:55;6.30;;;4.50;;
62435;SDS011;48480;50.252;18.848;2023-02-26T06:39:20;9.00;;;5.20;;
62435;SDS011;48480;50.252;18.848;2023-02-26T06:41:45;8.70;;;5.30;;
62435;SDS011;48480;50.252;18.848;2023-02-26T06:44:11;11.40;;;5.50;;
62435;SDS011;48480;50.252;18.848;2023-02-26T06:46:38;9.30;;;5.90;;
62435;SDS011;48480;50.252;18.848;2023-02-26T06:49:04;7.40;;;5.10;;
62435;SDS011;48480;50.252;18.848;2023-02-26T06:51:30;12.90;;;6.70;;
62435;SDS011;48480;50.252;18.848;2023-02-26T06:53:56;15.80;;;7.60;;
62435;SDS011;48480;50.252;18.848;2023-02-26T06:56:22;10.20;;;6.20;;
62435;SDS011;48480;50.252;18.848;2023-02-26T06:58:48;15.90;;;7.10;;
62435;SDS011;48480;50.252;18.848;2023-02-26T07:01:13;10.90;;;7.30;;
62435;SDS011;48480;50.252;18.848;2023-02-26T07:03:40;14.40;;;7.20;;
62435;SDS011;48480;50.252;18.848;2023-02-26T07:06:06;12.10;;;6.80;;
62435;SDS011;48480;50.252;18.848;2023-02-26T07:08:32;11.60;;;7.30;;
62435;SDS011;48480;50.252;18.848;2023-02-26T07:10:59;12.00;;;7.30;;
62435;SDS011;48480;50.252;18.848;2023-02-26T07:13:24;9.20;;;6.90;;
62435;SDS011;48480;50.252;18.848;2023-02-26T07:15:50;11.80;;;7.00;;
62435;SDS011;48480;50.252;18.848;2023-02-26T07:18:16;14.60;;;7.30;;
62435;SDS011;48480;50.252;18.848;2023-02-26T07:20:47;11.00;;;6.80;;
62435;SDS011;48480;50.252;18.848;2023-02-26T07:23:14;10.60;;;6.30;;
62435;SDS011;48480;50.252;18.848;2023-02-26T07:25:39;11.20;;;7.00;;
62435;SDS011;48480;50.252;18.848;2023-02-26T07:28:05;9.50;;;6.00;;
62435;SDS011;48480;50.252;18.848;2023-02-26T07:30:32;11.10;;;6.30;;
62435;SDS011;48480;50.252;18.848;2023-02-26T07:33:01;11.50;;;7.40;;
62435;SDS011;48480;50.252;18.848;2023-02-26T07:35:27;11.10;;;6.80;;
62435;SDS011;48480;50.252;18.848;2023-02-26T07:37:53;11.80;;;7.50;;
62435;SDS011;48480;50.252;18.848;2023-02-26T07:40:20;11.70;;;7.80;;
62435;SDS011;48480;50.252;18.848;2023-02-26T07:42:46;8.50;;;6.40;;
62435;SDS011;48480;50.252;18.848;2023-02-26T07:45:11;13.20;;;6.50;;
62435;SDS011;48480;50.252;18.848;2023-02-26T07:47:37;39.90;;;14.90;;
62435;SDS011;48480;50.252;18.848;2023-02-26T07:50:03;33.90;;;15.50;;
62435;SDS011;48480;50.252;18.848;2023-02-26T07:52:32;41.00;;;21.10;;
62435;SDS011;48480;50.252;18.848;2023-02-26T07:54:57;24.80;;;13.20;;
62435;SDS011;48480;50.252;18.848;2023-02-26T07:57:23;16.80;;;9.40;;
62435;SDS011;48480;50.252;18.848;2023-02-26T07:59:48;16.10;;;8.20;;
62435;SDS011;48480;50.252;18.848;2023-02-26T08:02:21;15.30;;;9.80;;
62435;SDS011;48480;50.252;18.848;2023-02-26T08:04:48;13.90;;;8.70;;
62435;SDS011;48480;50.252;18.848;2023-02-26T08:07:13;11.90;;;8.40;;
62435;SDS011;48480;50.252;18.848;2023-02-26T08:09:39;13.30;;;7.50;;
62435;SDS011;48480;50.252;18.848;2023-02-26T08:12:05;13.90;;;8.30;;
62435;SDS011;48480;50.252;18.848;2023-02-26T08:14:34;13.70;;;8.30;;
62435;SDS011;48480;50.252;18.848;2023-02-26T08:17:00;7.30;;;5.30;;
62435;SDS011;48480;50.252;18.848;2023-02-26T08:19:25;8.00;;;4.90;;
62435;SDS011;48480;50.252;18.848;2023-02-26T08:21:51;6.20;;;3.50;;
62435;SDS011;48480;50.252;18.848;2023-02-26T08:24:19;5.30;;;3.70;;
62435;SDS011;48480;50.252;18.848;2023-02-26T08:26:56;7.80;;;4.00;;
62435;SDS011;48480;50.252;18.848;2023-02-26T08:29:21;7.20;;;3.60;;
62435;SDS011;48480;50.252;18.848;2023-02-26T08:31:48;5.50;;;3.30;;
62435;SDS011;48480;50.252;18.848;2023-02-26T08:34:14;6.50;;;4.40;;
62435;SDS011;48480;50.252;18.848;2023-02-26T08:36:40;7.80;;;5.40;;
62435;SDS011;48480;50.252;18.848;2023-02-26T08:39:05;8.10;;;4.90;;
62435;SDS011;48480;50.252;18.848;2023-02-26T08:41:31;10.70;;;5.90;;
62435;SDS011;48480;50.252;18.848;2023-02-26T08:44:01;32.60;;;16.00;;
62435;SDS011;48480;50.252;18.848;2023-02-26T08:46:27;17.30;;;10.60;;
62435;SDS011;48480;50.252;18.848;2023-02-26T08:48:53;12.90;;;6.60;;
62435;SDS011;48480;50.252;18.848;2023-02-26T08:51:19;9.60;;;6.30;;
62435;SDS011;48480;50.252;18.848;2023-02-26T08:53:46;10.50;;;6.30;;
62435;SDS011;48480;50.252;18.848;2023-02-26T08:56:14;10.30;;;5.80;;
62435;SDS011;48480;50.252;18.848;2023-02-26T08:58:39;10.20;;;6.20;;
62435;SDS011;48480;50.252;18.848;2023-02-26T09:01:05;9.60;;;6.00;;
62435;SDS011;48480;50.252;18.848;2023-02-26T09:03:30;11.30;;;6.50;;
62435;SDS011;48480;50.252;18.848;2023-02-26T09:05:56;9.60;;;6.00;;
62435;SDS011;48480;50.252;18.848;2023-02-26T09:08:21;6.70;;;4.50;;
62435;SDS011;48480;50.252;18.848;2023-02-26T09:10:47;10.20;;;4.70;;
62435;SDS011;48480;50.252;18.848;2023-02-26T09:13:13;7.70;;;4.50;;
62435;SDS011;48480;50.252;18.848;2023-02-26T09:15:39;6.50;;;4.80;;
62435;SDS011;48480;50.252;18.848;2023-02-26T09:18:05;6.60;;;4.40;;
62435;SDS011;48480;50.252;18.848;2023-02-26T09:20:31;5.70;;;4.10;;
62435;SDS011;48480;50.252;18.848;2023-02-26T09:22:56;6.10;;;3.20;;
62435;SDS011;48480;50.252;18.848;2023-02-26T09:25:22;9.30;;;5.10;;
62435;SDS011;48480;50.252;18.848;2023-02-26T09:27:48;9.50;;;5.60;;
62435;SDS011;48480;50.252;18.848;2023-02-26T09:30:14;6.80;;;4.40;;
62435;SDS011;48480;50.252;18.848;2023-02-26T09:32:41;10.50;;;5.40;;
62435;SDS011;48480;50.252;18.848;2023-02-26T09:35:07;8.60;;;4.70;;
62435;SDS011;48480;50.252;18.848;2023-02-26T09:37:34;4.60;;;3.40;;
62435;SDS011;48480;50.252;18.848;2023-02-26T09:39:59;8.30;;;3.90;;
62435;SDS011;48480;50.252;18.848;2023-02-26T09:42:47;6.80;;;3.30;;
62435;SDS011;48480;50.252;18.848;2023-02-26T09:45:44;6.20;;;3.10;;
62435;SDS011;48480;50.252;18.848;2023-02-26T09:48:14;6.00;;;2.90;;
62435;SDS011;48480;50.252;18.848;2023-02-26T09:50:44;4.90;;;2.60;;
62435;SDS011;48480;50.252;18.848;2023-02-26T09:55:47;4.80;;;3.00;;
62435;SDS011;48480;50.252;18.848;2023-02-26T10:06:35;6.20;;;3.90;;
62435;SDS011;48480;50.252;18.848;2023-02-26T10:09:15;8.10;;;4.20;;
62435;SDS011;48480;50.252;18.848;2023-02-26T10:12:11;17.60;;;9.20;;
62435;SDS011;48480;50.252;18.848;2023-02-26T10:17:50;9.50;;;5.10;;
62435;SDS011;48480;50.252;18.848;2023-02-26T10:20:33;6.30;;;4.30;;
62435;SDS011;48480;50.252;18.848;2023-02-26T10:23:24;26.90;;;12.50;;
62435;SDS011;48480;50.252;18.848;2023-02-26T10:26:00;6.40;;;3.80;;
62435;SDS011;48480;50.252;18.848;2023-02-26T10:31:37;5.70;;;4.40;;
62435;SDS011;48480;50.252;18.848;2023-02-26T10:34:09;5.10;;;3.20;;
62435;SDS011;48480;50.252;18.848;2023-02-26T10:37:03;6.20;;;3.10;;
62435;SDS011;48480;50.252;18.848;2023-02-26T10:39:53;6.50;;;4.30;;
62435;SDS011;48480;50.252;18.848;2023-02-26T10:45:25;7.00;;;3.80;;
62435;SDS011;48480;50.252;18.848;2023-02-26T10:53:21;7.50;;;4.00;;
62435;SDS011;48480;50.252;18.848;2023-02-26T10:55:50;12.90;;;5.50;;
62435;SDS011;48480;50.252;18.848;2023-02-26T10:58:22;8.00;;;4.60;;
62435;SDS011;48480;50.252;18.848;2023-02-26T11:00:49;5.20;;;3.50;;
62435;SDS011;48480;50.252;18.848;2023-02-26T11:05:48;5.90;;;3.50;;
62435;SDS011;48480;50.252;18.848;2023-02-26T11:08:17;6.20;;;3.20;;
62435;SDS011;48480;50.252;18.848;2023-02-26T11:10:49;6.50;;;4.00;;
62435;SDS011;48480;50.252;18.848;2023-02-26T11:13:17;7.90;;;5.00;;
62435;SDS011;48480;50.252;18.848;2023-02-26T11:15:46;9.70;;;4.80;;
62435;SDS011;48480;50.252;18.848;2023-02-26T11:18:16;9.50;;;5.20;;
62435;SDS011;48480;50.252;18.848;2023-02-26T11:20:47;8.60;;;5.00;;
62435;SDS011;48480;50.252;18.848;2023-02-26T11:23:15;9.20;;;5.30;;
62435;SDS011;48480;50.252;18.848;2023-02-26T11:25:44;8.20;;;5.60;;
62435;SDS011;48480;50.252;18.848;2023-02-26T11:31:00;13.00;;;7.10;;
62435;SDS011;48480;50.252;18.848;2023-02-26T11:33:42;11.20;;;6.40;;
62435;SDS011;48480;50.252;18.848;2023-02-26T11:36:14;14.50;;;6.80;;
62435;SDS011;48480;50.252;18.848;2023-02-26T11:38:45;13.60;;;5.60;;
62435;SDS011;48480;50.252;18.848;2023-02-26T11:41:17;11.00;;;6.40;;
62435;SDS011;48480;50.252;18.848;2023-02-26T11:43:46;8.20;;;4.40;;
62435;SDS011;48480;50.252;18.848;2023-02-26T11:46:22;8.00;;;4.90;;
62435;SDS011;48480;50.252;18.848;2023-02-26T11:48:49;11.60;;;5.50;;
62435;SDS011;48480;50.252;18.848;2023-02-26T11:51:21;8.40;;;4.30;;
62435;SDS011;48480;50.252;18.848;2023-02-26T11:53:55;15.30;;;6.50;;
62435;SDS011;48480;50.252;18.848;2023-02-26T11:56:37;13.60;;;7.10;;
62435;SDS011;48480;50.252;18.848;2023-02-26T11:59:21;20.10;;;9.30;;
62435;SDS011;48480;50.252;18.848;2023-02-26T12:01:49;16.10;;;7.10;;
62435;SDS011;48480;50.252;18.848;2023-02-26T12:04:23;12.70;;;5.70;;
62435;SDS011;48480;50.252;18.848;2023-02-26T12:06:51;13.20;;;6.20;;
62435;SDS011;48480;50.252;18.848;2023-02-26T12:09:19;11.40;;;5.50;;
62435;SDS011;48480;50.252;18.848;2023-02-26T12:31:43;7.10;;;3.30;;
62435;SDS011;48480;50.252;18.848;2023-02-26T12:37:32;5.10;;;3.20;;
62435;SDS011;48480;50.252;18.848;2023-02-26T12:40:22;6.70;;;2.80;;
62435;SDS011;48480;50.252;18.848;2023-02-26T12:45:33;6.00;;;3.50;;
62435;SDS011;48480;50.252;18.848;2023-02-26T12:51:01;8.10;;;4.20;;
62435;SDS011;48480;50.252;18.848;2023-02-26T13:05:35;13.00;;;6.10;;
62435;SDS011;48480;50.252;18.848;2023-02-26T13:16:44;8.20;;;5.10;;
62435;SDS011;48480;50.252;18.848;2023-02-26T13:22:31;8.90;;;4.50;;
62435;SDS011;48480;50.252;18.848;2023-02-26T13:27:30;6.70;;;4.30;;
62435;SDS011;48480;50.252;18.848;2023-02-26T13:32:30;7.40;;;3.10;;
62435;SDS011;48480;50.252;18.848;2023-02-26T13:35:02;6.90;;;3.80;;
62435;SDS011;48480;50.252;18.848;2023-02-26T13:40:31;7.20;;;4.40;;
62435;SDS011;48480;50.252;18.848;2023-02-26T13:48:32;5.90;;;4.30;;
62435;SDS011;48480;50.252;18.848;2023-02-26T13:53:58;12.60;;;7.40;;
62435;SDS011;48480;50.252;18.848;2023-02-26T13:59:16;13.40;;;7.50;;
62435;SDS011;48480;50.252;18.848;2023-02-26T14:02:00;12.60;;;6.30;;
62435;SDS011;48480;50.252;18.848;2023-02-26T14:04:52;11.30;;;6.30;;
62435;SDS011;48480;50.252;18.848;2023-02-26T14:10:58;16.90;;;7.20;;
62435;SDS011;48480;50.252;18.848;2023-02-26T14:13:39;15.40;;;6.60;;
62435;SDS011;48480;50.252;18.848;2023-02-26T14:16:27;16.10;;;8.20;;
62435;SDS011;48480;50.252;18.848;2023-02-26T14:18:53;18.60;;;9.80;;
62435;SDS011;48480;50.252;18.848;2023-02-26T14:24:03;18.40;;;9.00;;
62435;SDS011;48480;50.252;18.848;2023-02-26T14:26:32;14.20;;;8.70;;
62435;SDS011;48480;50.252;18.848;2023-02-26T14:31:45;16.40;;;9.00;;
62435;SDS011;48480;50.252;18.848;2023-02-26T14:34:30;15.00;;;8.00;;
62435;SDS011;48480;50.252;18.848;2023-02-26T14:37:06;18.20;;;10.10;;
62435;SDS011;48480;50.252;18.848;2023-02-26T14:39:40;23.30;;;12.00;;
62435;SDS011;48480;50.252;18.848;2023-02-26T14:42:11;16.30;;;9.40;;
62435;SDS011;48480;50.252;18.848;2023-02-26T14:47:14;12.20;;;7.50;;
62435;SDS011;48480;50.252;18.848;2023-02-26T14:49:41;14.60;;;8.40;;
62435;SDS011;48480;50.252;18.848;2023-02-26T15:00:51;16.40;;;8.90;;
62435;SDS011;48480;50.252;18.848;2023-02-26T15:08:59;16.80;;;9.10;;
62435;SDS011;48480;50.252;18.848;2023-02-26T15:14:28;15.80;;;8.90;;
62435;SDS011;48480;50.252;18.848;2023-02-26T15:25:50;22.80;;;9.90;;
62435;SDS011;48480;50.252;18.848;2023-02-26T15:28:26;19.90;;;9.80;;
62435;SDS011;48480;50.252;18.848;2023-02-26T15:30:54;15.60;;;8.90;;
62435;SDS011;48480;50.252;18.848;2023-02-26T15:33:22;19.50;;;11.40;;
62435;SDS011;48480;50.252;18.848;2023-02-26T15:35:50;26.90;;;13.50;;
62435;SDS011;48480;50.252;18.848;2023-02-26T15:38:17;19.80;;;11.20;;
62435;SDS011;48480;50.252;18.848;2023-02-26T15:40:43;17.30;;;8.90;;
62435;SDS011;48480;50.252;18.848;2023-02-26T15:43:12;39.00;;;19.60;;
62435;SDS011;48480;50.252;18.848;2023-02-26T15:45:45;32.30;;;16.90;;
62435;SDS011;48480;50.252;18.848;2023-02-26T15:48:18;25.10;;;13.30;;
62435;SDS011;48480;50.252;18.848;2023-02-26T15:50:55;25.00;;;13.60;;
62435;SDS011;48480;50.252;18.848;2023-02-26T15:53:45;27.90;;;14.50;;
62435;SDS011;48480;50.252;18.848;2023-02-26T15:56:17;33.00;;;18.60;;
62435;SDS011;48480;50.252;18.848;2023-02-26T16:01:48;43.40;;;20.10;;
62435;SDS011;48480;50.252;18.848;2023-02-26T16:04:15;36.20;;;19.50;;
62435;SDS011;48480;50.252;18.848;2023-02-26T16:06:47;28.60;;;15.40;;
62435;SDS011;48480;50.252;18.848;2023-02-26T16:11:41;22.50;;;11.80;;
62435;SDS011;48480;50.252;18.848;2023-02-26T16:14:20;19.90;;;12.10;;
62435;SDS011;48480;50.252;18.848;2023-02-26T16:16:50;43.40;;;21.60;;
62435;SDS011;48480;50.252;18.848;2023-02-26T16:19:20;35.30;;;19.10;;
62435;SDS011;48480;50.252;18.848;2023-02-26T16:22:10;30.70;;;17.40;;
62435;SDS011;48480;50.252;18.848;2023-02-26T16:24:51;36.40;;;20.60;;
62435;SDS011;48480;50.252;18.848;2023-02-26T16:27:20;33.30;;;19.10;;
62435;SDS011;48480;50.252;18.848;2023-02-26T16:29:52;37.90;;;20.90;;
62435;SDS011;48480;50.252;18.848;2023-02-26T16:32:30;29.10;;;17.70;;
62435;SDS011;48480;50.252;18.848;2023-02-26T16:34:59;35.70;;;19.80;;
62435;SDS011;48480;50.252;18.848;2023-02-26T16:37:34;30.00;;;20.20;;
62435;SDS011;48480;50.252;18.848;2023-02-26T16:45:42;28.20;;;17.10;;
62435;SDS011;48480;50.252;18.848;2023-02-26T16:48:16;59.90;;;26.90;;
62435;SDS011;48480;50.252;18.848;2023-02-26T16:50:57;36.20;;;19.40;;
62435;SDS011;48480;50.252;18.848;2023-02-26T16:53:32;225.10;;;88.30;;
62435;SDS011;48480;50.252;18.848;2023-02-26T16:56:00;58.20;;;28.20;;
62435;SDS011;48480;50.252;18.848;2023-02-26T16:58:28;133.00;;;57.70;;
62435;SDS011;48480;50.252;18.848;2023-02-26T17:01:13;42.30;;;22.80;;
62435;SDS011;48480;50.252;18.848;2023-02-26T17:03:49;30.10;;;17.30;;
62435;SDS011;48480;50.252;18.848;2023-02-26T17:06:23;30.60;;;17.90;;
62435;SDS011;48480;50.252;18.848;2023-02-26T17:08:50;26.80;;;15.00;;
62435;SDS011;48480;50.252;18.848;2023-02-26T17:11:33;24.20;;;12.90;;
62435;SDS011;48480;50.252;18.848;2023-02-26T17:16:37;18.70;;;10.60;;
62435;SDS011;48480;50.252;18.848;2023-02-26T17:19:03;19.80;;;10.90;;
62435;SDS011;48480;50.252;18.848;2023-02-26T17:21:29;20.10;;;11.70;;
62435;SDS011;48480;50.252;18.848;2023-02-26T17:23:55;20.10;;;10.80;;
62435;SDS011;48480;50.252;18.848;2023-02-26T17:26:22;20.50;;;11.00;;
62435;SDS011;48480;50.252;18.848;2023-02-26T17:28:49;33.80;;;15.90;;
62435;SDS011;48480;50.252;18.848;2023-02-26T17:31:15;35.50;;;17.20;;
62435;SDS011;48480;50.252;18.848;2023-02-26T17:33:41;39.30;;;18.40;;
62435;SDS011;48480;50.252;18.848;2023-02-26T17:36:11;50.50;;;23.50;;
62435;SDS011;48480;50.252;18.848;2023-02-26T17:38:39;48.00;;;23.50;;
62435;SDS011;48480;50.252;18.848;2023-02-26T17:43:37;31.50;;;17.40;;
62435;SDS011;48480;50.252;18.848;2023-02-26T17:46:03;31.70;;;16.00;;
62435;SDS011;48480;50.252;18.848;2023-02-26T17:48:29;32.40;;;15.90;;
62435;SDS011;48480;50.252;18.848;2023-02-26T17:50:56;34.80;;;17.40;;
62435;SDS011;48480;50.252;18.848;2023-02-26T17:53:23;32.60;;;17.10;;
62435;SDS011;48480;50.252;18.848;2023-02-26T17:55:57;38.60;;;19.40;;
62435;SDS011;48480;50.252;18.848;2023-02-26T17:58:29;38.60;;;20.10;;
62435;SDS011;48480;50.252;18.848;2023-02-26T18:01:01;34.90;;;19.00;;
62435;SDS011;48480;50.252;18.848;2023-02-26T18:03:30;31.90;;;16.30;;